Time;durP1;ratioP1;P1;durP2;ratioP2;P2;SDS_P1;SDS_P2;PMS_P1;PMS_P2;Temp;Humidity;BMP_temperature;BMP_pressure;BME280_temperature;BME280_humidity;BME280_pressure;Samples;Min_cycle;Max_cycle;Signal;HPM_P1;HPM_P2
2021/03/20 00:01:34;;;;;;;5.20;4.10;;;;;;;4.19;55.02;101161.28;10235706;28;20130;-70
2021/03/20 00:06:41;;;;;;;5.40;4.30;;;;;;;4.21;55.09;101159.41;10221956;28;20087;-70
2021/03/20 00:11:45;;;;;;;4.50;3.85;;;;;;;4.07;55.50;101150.28;10224499;28;20047;-71
2021/03/20 00:16:46;;;;;;;3.85;3.42;;;;;;;3.96;55.78;101156.88;10229575;28;20055;-70
2021/03/20 00:21:48;;;;;;;4.40;4.00;;;;;;;3.87;56.09;101156.31;10229833;28;20142;-70
2021/03/20 00:26:49;;;;;;;4.78;4.38;;;;;;;3.79;56.47;101161.00;10227613;28;20137;-70
2021/03/20 00:31:50;;;;;;;5.63;3.83;;;;;;;3.70;56.70;101169.25;10232444;28;20106;-70
2021/03/20 00:36:51;;;;;;;4.88;4.05;;;;;;;3.68;57.02;101168.47;10245537;28;20506;-71
2021/03/20 00:41:52;;;;;;;5.47;3.30;;;;;;;3.67;56.97;101174.66;10255037;28;20054;-71
2021/03/20 00:46:53;;;;;;;4.22;3.83;;;;;;;3.68;56.49;101181.63;10258280;28;20047;-70
2021/03/20 00:51:55;;;;;;;4.38;3.97;;;;;;;3.66;56.89;101178.19;10257622;28;20050;-69
2021/03/20 00:56:56;;;;;;;4.57;3.65;;;;;;;3.72;56.70;101186.72;10245118;28;20153;-70
2021/03/20 01:01:56;;;;;;;4.63;3.67;;;;;;;3.70;56.48;101179.78;10249448;28;20163;-70
2021/03/20 01:06:58;;;;;;;5.90;3.90;;;;;;;3.78;56.24;101179.50;10261126;28;20043;-71
2021/03/20 01:11:59;;;;;;;3.92;3.53;;;;;;;3.75;56.35;101177.84;10253838;28;20051;-71
2021/03/20 01:17:01;;;;;;;5.53;3.70;;;;;;;3.70;56.07;101179.78;10246964;28;20454;-70
2021/03/20 01:22:02;;;;;;;3.55;3.22;;;;;;;3.68;56.21;101179.00;10243733;28;20106;-70
2021/03/20 01:27:04;;;;;;;4.03;3.67;;;;;;;3.69;56.02;101176.31;10231146;28;21369;-70
2021/03/20 01:32:05;;;;;;;3.40;3.10;;;;;;;3.61;55.97;101175.72;10220095;28;20170;-71
2021/03/20 01:37:06;;;;;;;3.50;3.20;;;;;;;3.60;56.31;101191.56;10221158;28;20053;-71
2021/03/20 01:42:21;;;;;;;3.92;3.50;;;;;;;3.57;55.91;101178.53;10230629;28;20706;-71
2021/03/20 01:47:22;;;;;;;3.42;2.78;;;;;;;3.57;55.70;101187.28;10222961;28;20047;-69
2021/03/20 01:52:28;;;;;;;3.78;3.38;;;;;;;3.43;56.54;101190.41;10212060;28;20075;-70
2021/03/20 01:57:34;;;;;;;3.17;2.88;;;;;;;3.45;56.66;101191.22;10217618;28;20063;-71
2021/03/20 02:02:35;;;;;;;3.25;2.85;;;;;;;3.41;56.81;101189.63;10224521;28;20117;-70
2021/03/20 02:07:36;;;;;;;3.55;3.25;;;;;;;3.41;56.43;101189.63;10229849;28;20058;-71
2021/03/20 02:12:50;;;;;;;3.70;3.30;;;;;;;3.38;56.59;101178.31;10218653;28;20054;-71
2021/03/20 02:18:32;;;;;;;3.90;3.45;;;;;;;3.42;56.60;101170.25;10223377;28;20071;-71
2021/03/20 02:23:57;;;;;;;4.20;3.53;;;;;;;3.38;56.66;101165.16;10212771;28;20106;-71
2021/03/20 02:29:03;;;;;;;3.70;3.40;;;;;;;3.26;56.72;101153.28;10217374;28;20342;-71
2021/03/20 02:34:27;;;;;;;2.72;2.53;;;;;;;3.27;56.36;101174.31;10219978;28;20122;-69
2021/03/20 02:40:01;;;;;;;4.60;3.72;;;;;;;3.31;56.54;101190.84;10225657;28;20537;-70
2021/03/20 02:45:12;;;;;;;3.20;2.90;;;;;;;3.36;56.58;101183.63;10226658;28;20043;-72
2021/03/20 02:50:21;;;;;;;4.20;2.70;;;;;;;3.50;55.76;101191.91;10225328;28;20075;-71
2021/03/20 02:55:36;;;;;;;3.15;2.67;;;;;;;3.57;55.65;101200.44;10233385;28;20047;-71
2021/03/20 03:00:48;;;;;;;3.13;2.65;;;;;;;3.44;55.24;101189.50;10245902;28;20051;-72
2021/03/20 03:05:56;;;;;;;5.30;3.70;;;;;;;3.25;56.30;101193.69;10219376;28;20127;-70
2021/03/20 03:11:14;;;;;;;4.50;2.78;;;;;;;3.19;56.36;101200.88;10225420;28;20184;-71
2021/03/20 03:16:49;;;;;;;3.50;2.97;;;;;;;3.10;56.86;101198.56;10238182;28;20466;-71
2021/03/20 03:21:55;;;;;;;2.90;2.20;;;;;;;3.05;56.72;101216.28;10221124;28;20058;-71
2021/03/20 03:27:05;;;;;;;3.83;3.33;;;;;;;2.96;56.57;101225.34;10224115;28;20070;-70
2021/03/20 03:32:27;;;;;;;3.30;3.00;;;;;;;3.03;56.34;101231.25;10223557;28;20163;-71
2021/03/20 03:37:34;;;;;;;5.38;3.35;;;;;;;3.06;56.07;101207.47;10223351;28;20050;-70
2021/03/20 03:42:35;;;;;;;2.58;2.35;;;;;;;2.96;55.86;101195.56;10225105;28;20090;-71
2021/03/20 03:47:36;;;;;;;3.13;2.03;;;;;;;2.90;54.90;101195.75;10231878;28;20106;-71
2021/03/20 03:52:37;;;;;;;2.95;2.17;;;;;;;2.86;54.35;101216.03;10268777;28;20042;-72
2021/03/20 03:57:53;;;;;;;2.55;2.05;;;;;;;2.81;53.10;101213.56;10265083;28;20055;-71
2021/03/20 04:03:40;;;;;;;2.97;1.90;;;;;;;2.68;51.90;101209.59;10255662;28;20106;-70
2021/03/20 04:08:47;;;;;;;1.60;1.50;;;;;;;2.69;51.04;101205.19;10248529;28;20102;-70
2021/03/20 04:13:57;;;;;;;2.53;1.75;;;;;;;2.62;51.53;101218.53;10242548;28;20146;-71
2021/03/20 04:19:16;;;;;;;2.42;2.03;;;;;;;2.55;52.11;101221.41;10225468;28;20058;-70
2021/03/20 04:24:27;;;;;;;3.42;1.77;;;;;;;2.56;52.09;101226.63;10226844;28;20474;-70
2021/03/20 04:29:41;;;;;;;2.47;1.85;;;;;;;2.56;51.44;101242.41;10231831;28;20114;-71
2021/03/20 04:35:04;;;;;;;2.47;1.60;;;;;;;2.65;50.90;101251.78;10246498;28;20063;-70
2021/03/20 04:40:08;;;;;;;1.85;1.40;;;;;;;2.60;50.73;101251.06;10258545;28;20043;-70
2021/03/20 04:45:25;;;;;;;1.83;1.40;;;;;;;2.53;50.81;101254.78;10254441;28;20047;-71
2021/03/20 04:50:28;;;;;;;1.70;1.52;;;;;;;2.64;50.65;101252.66;10217184;28;20126;-71
2021/03/20 04:55:29;;;;;;;1.95;1.65;;;;;;;2.52;50.56;101259.16;10224731;28;20109;-70
2021/03/20 05:00:39;;;;;;;1.95;1.42;;;;;;;2.56;50.36;101267.84;10223993;28;20074;-70
2021/03/20 05:05:54;;;;;;;2.22;1.45;;;;;;;2.52;50.18;101267.06;10227736;28;20078;-71
2021/03/20 05:11:01;;;;;;;2.75;1.92;;;;;;;2.48;50.31;101273.34;10245864;28;20115;-70
2021/03/20 05:16:17;;;;;;;3.28;1.38;;;;;;;2.50;50.69;101283.81;10233062;28;20099;-71
2021/03/20 05:21:28;;;;;;;2.35;1.40;;;;;;;2.55;49.65;101276.63;10270229;28;20050;-71
2021/03/20 05:26:32;;;;;;;2.20;1.30;;;;;;;2.59;49.00;101283.50;10225790;28;20561;-68
2021/03/20 05:31:34;;;;;;;3.92;1.20;;;;;;;2.51;49.13;101275.00;10231466;28;20035;-72
2021/03/20 05:36:35;;;;;;;2.33;1.02;;;;;;;2.54;47.96;101274.88;10228684;28;20492;-71
2021/03/20 05:41:42;;;;;;;2.10;0.88;;;;;;;2.47;47.26;101275.09;10228142;28;20062;-70
2021/03/20 05:47:23;;;;;;;1.73;0.80;;;;;;;2.55;46.26;101301.16;10223909;28;20445;-70
2021/03/20 05:52:42;;;;;;;3.30;1.10;;;;;;;2.66;46.09;101306.09;10203376;28;20050;-69
2021/03/20 05:57:48;;;;;;;3.20;1.15;;;;;;;2.71;47.04;101319.94;10222884;28;20079;-71
2021/03/20 06:03:51;;;;;;;2.58;1.00;;;;;;;2.78;46.68;101324.09;10218113;28;20071;-71
2021/03/20 06:09:36;;;;;;;1.45;0.70;;;;;;;2.75;46.18;101326.84;10146253;29;20145;-71
2021/03/20 06:15:09;;;;;;;3.00;1.40;;;;;;;2.68;45.83;101341.06;10121897;28;20087;-71
2021/03/20 06:20:35;;;;;;;2.58;0.73;;;;;;;2.64;45.34;101327.16;10223997;28;20050;-72
2021/03/20 06:25:54;;;;;;;1.40;0.88;;;;;;;2.83;45.32;101335.31;10227072;28;20074;-70
2021/03/20 06:31:01;;;;;;;2.85;0.60;;;;;;;3.02;44.66;101340.03;10229081;28;20039;-71
2021/03/20 06:36:05;;;;;;;2.50;0.77;;;;;;;3.14;44.36;101329.13;10231071;28;20052;-71
2021/03/20 06:41:14;;;;;;;1.85;0.50;;;;;;;3.41;43.15;101341.41;10234469;28;20418;-72
2021/03/20 06:46:26;;;;;;;1.17;0.63;;;;;;;3.56;43.52;101318.97;10231228;28;20072;-71
2021/03/20 06:51:29;;;;;;;1.38;0.55;;;;;;;3.66;41.48;101309.84;10224700;28;20442;-70
2021/03/20 06:56:36;;;;;;;2.03;1.00;;;;;;;3.57;42.36;101332.06;10233725;28;20494;-70
2021/03/20 07:01:58;;;;;;;2.63;0.77;;;;;;;3.95;42.68;101337.81;10238646;28;20063;-70
2021/03/20 07:07:05;;;;;;;2.28;1.02;;;;;;;4.12;42.58;101345.09;10244099;28;20438;-71
2021/03/20 07:12:15;;;;;;;1.42;0.70;;;;;;;4.25;41.08;101351.66;10219975;28;20063;-71
2021/03/20 07:17:23;;;;;;;3.00;0.75;;;;;;;4.50;40.21;101361.28;10236039;28;20133;-71
2021/03/20 07:22:28;;;;;;;3.35;1.48;;;;;;;4.65;39.20;101359.84;10224616;28;20745;-69
2021/03/20 07:27:34;;;;;;;2.17;1.08;;;;;;;4.76;38.99;101362.09;10234680;28;20135;-70
2021/03/20 07:32:38;;;;;;;1.42;0.47;;;;;;;4.93;38.84;101370.19;10228149;28;20616;-70
2021/03/20 07:37:41;;;;;;;2.55;0.70;;;;;;;5.19;38.88;101365.66;10233309;28;20110;-71
2021/03/20 07:42:42;;;;;;;1.23;0.63;;;;;;;4.90;39.40;101367.66;10230702;28;21407;-70
2021/03/20 07:48:00;;;;;;;2.22;0.98;;;;;;;5.46;38.26;101378.66;10234862;28;20166;-72
2021/03/20 07:53:10;;;;;;;1.70;0.82;;;;;;;5.82;37.40;101385.97;10236223;28;20052;-72
2021/03/20 07:58:17;;;;;;;2.03;0.82;;;;;;;6.07;37.46;101385.81;10230179;28;20055;-69
2021/03/20 08:03:26;;;;;;;2.05;0.50;;;;;;;6.57;35.07;101389.75;10232116;28;20122;-70
2021/03/20 08:08:27;;;;;;;1.75;0.60;;;;;;;6.83;34.33;101385.94;10232218;28;20047;-68
2021/03/20 08:13:31;;;;;;;1.27;0.60;;;;;;;7.20;34.10;101404.50;10233019;28;20102;-70
2021/03/20 08:18:35;;;;;;;1.67;0.40;;;;;;;7.67;31.83;101400.44;10229226;28;20514;-70
2021/03/20 08:24:04;;;;;;;1.60;0.35;;;;;;;7.75;31.01;101399.13;10226118;28;20043;-70
2021/03/20 08:29:08;;;;;;;1.20;0.43;;;;;;;7.55;30.09;101399.25;10215859;28;20312;-70
2021/03/20 08:34:25;;;;;;;2.42;0.60;;;;;;;7.66;30.86;101390.81;10233360;28;20122;-70
2021/03/20 08:39:42;;;;;;;1.35;0.50;;;;;;;7.97;34.35;101409.50;10237741;28;20145;-68
2021/03/20 08:44:53;;;;;;;1.02;0.40;;;;;;;8.16;29.96;101405.06;10232731;28;20455;-73
2021/03/20 08:50:07;;;;;;;1.52;0.52;;;;;;;7.32;31.51;101419.78;10237571;28;20368;-71
2021/03/20 08:55:25;;;;;;;1.40;0.65;;;;;;;7.23;31.83;101425.53;10239787;28;20043;-71
2021/03/20 09:01:05;;;;;;;1.15;0.35;;;;;;;7.73;31.45;101421.34;10231715;28;20055;-70
2021/03/20 09:06:17;;;;;;;3.40;0.68;;;;;;;7.86;32.53;101416.28;10235661;28;20492;-72
2021/03/20 09:11:36;;;;;;;1.35;0.57;;;;;;;8.41;28.99;101401.97;10232772;28;20047;-72
2021/03/20 09:16:46;;;;;;;1.88;0.45;;;;;;;8.28;28.82;101401.75;10240796;28;20078;-72
2021/03/20 09:21:48;;;;;;;1.27;0.32;;;;;;;8.69;28.57;101390.75;10252658;28;20055;-72
2021/03/20 09:26:52;;;;;;;1.80;0.32;;;;;;;9.31;26.66;101403.28;10244110;28;20138;-72
2021/03/20 09:31:53;;;;;;;1.80;0.70;;;;;;;9.61;26.92;101402.44;10248219;28;20066;-72
2021/03/20 09:36:55;;;;;;;1.38;0.73;;;;;;;9.72;25.76;101390.25;10245136;28;20039;-72
2021/03/20 09:41:57;;;;;;;1.27;0.52;;;;;;;9.87;25.96;101392.94;10260917;28;20043;-73
2021/03/20 09:46:59;;;;;;;0.90;0.40;;;;;;;9.96;24.52;101368.44;10244257;28;20062;-72
2021/03/20 09:52:01;;;;;;;3.15;0.68;;;;;;;10.43;24.84;101382.50;10253286;28;20057;-71
2021/03/20 09:57:05;;;;;;;0.70;0.30;;;;;;;11.05;23.26;101382.16;10255806;28;20066;-72
2021/03/20 10:02:09;;;;;;;1.90;0.68;;;;;;;11.35;24.00;101380.22;10251576;28;21369;-73
2021/03/20 10:07:26;;;;;;;;;;;;;;;11.64;23.26;101363.16;10234815;28;20058;-74
2021/03/20 10:12:30;;;;;;;2.13;0.60;;;;;;;12.05;22.61;101365.81;10234310;28;20396;-73
2021/03/20 10:17:52;;;;;;;0.93;0.40;;;;;;;13.02;21.60;101367.81;10227823;28;20545;-72
2021/03/20 10:23:01;;;;;;;1.23;0.52;;;;;;;16.90;17.73;101356.19;10224680;28;20066;-70
2021/03/20 10:28:04;;;;;;;1.70;0.50;;;;;;;19.35;15.50;101361.81;10233974;28;20333;-72
2021/03/20 10:33:05;;;;;;;1.90;0.47;;;;;;;18.45;15.30;101352.66;10233099;28;20057;-70
2021/03/20 10:38:28;;;;;;;1.52;0.70;;;;;;;16.53;17.50;101359.41;10222000;28;20387;-71
2021/03/20 10:43:33;;;;;;;2.05;0.60;;;;;;;16.83;17.51;101355.00;10229215;28;20153;-73
2021/03/20 10:48:35;;;;;;;1.52;0.63;;;;;;;18.90;15.79;101351.91;10228096;28;20058;-70
2021/03/20 10:53:44;;;;;;;3.05;0.60;;;;;;;23.36;12.45;101354.59;10232480;28;20064;-71
2021/03/20 10:58:45;;;;;;;0.80;0.43;;;;;;;25.29;11.76;101340.19;10252057;28;20655;-72
2021/03/20 11:03:47;;;;;;;1.35;1.25;;;;;;;26.89;9.97;101345.94;10226072;28;21078;-73
2021/03/20 11:09:04;;;;;;;1.15;0.50;;;;;;;28.44;9.20;101341.34;10225729;28;20062;-71
2021/03/20 11:14:23;;;;;;;2.22;0.77;;;;;;;28.32;9.11;101332.97;10237770;28;20320;-72
2021/03/20 11:19:43;;;;;;;0.95;0.40;;;;;;;26.72;9.34;101329.06;10225953;28;20063;-72
2021/03/20 11:24:55;;;;;;;0.90;0.20;;;;;;;28.09;7.80;101326.06;10229668;28;20588;-72
2021/03/20 11:30:00;;;;;;;2.60;1.13;;;;;;;29.18;7.65;101325.38;10229874;28;20055;-72
2021/03/20 11:35:28;;;;;;;1.25;0.30;;;;;;;30.38;7.46;101323.47;10235069;28;20141;-72
2021/03/20 11:40:37;;;;;;;1.38;0.82;;;;;;;30.77;7.09;101322.16;10227375;28;20051;-72
2021/03/20 11:45:40;;;;;;;0.82;0.40;;;;;;;30.74;7.30;101316.28;10232517;28;20158;-73
2021/03/20 11:50:42;;;;;;;0.85;0.32;;;;;;;28.98;8.73;101320.03;10230397;28;20133;-71
2021/03/20 11:55:43;;;;;;;0.98;0.30;;;;;;;27.37;8.17;101308.63;10243723;28;20646;-72
2021/03/20 12:00:45;;;;;;;1.23;0.50;;;;;;;28.53;7.68;101294.31;10242931;28;20059;-71
2021/03/20 12:06:07;;;;;;;1.45;0.57;;;;;;;27.98;8.13;101296.63;10230768;28;21057;-73
2021/03/20 12:11:11;;;;;;;1.08;0.55;;;;;;;29.53;7.38;101289.28;10217772;28;20043;-73
2021/03/20 12:16:34;;;;;;;0.65;0.40;;;;;;;28.82;7.37;101281.13;10238481;28;20054;-73
2021/03/20 12:21:54;;;;;;;1.65;0.60;;;;;;;24.68;9.35;101265.19;10248309;28;20067;-73
2021/03/20 12:26:56;;;;;;;1.00;0.65;;;;;;;24.06;10.03;101268.34;10252129;28;20062;-72
2021/03/20 12:32:16;;;;;;;;;;;;;;;27.06;8.84;101266.31;10244611;28;20044;-73
2021/03/20 12:37:21;;;;;;;1.42;0.70;;;;;;;26.37;8.35;101258.13;10254845;28;20412;-72
2021/03/20 12:42:22;;;;;;;1.75;0.73;;;;;;;23.40;9.64;101249.97;10229560;28;20063;-72
2021/03/20 12:47:23;;;;;;;1.30;0.80;;;;;;;21.51;11.68;101258.03;10246308;28;20055;-72
2021/03/20 12:52:25;;;;;;;2.00;0.90;;;;;;;20.16;11.90;101257.19;10248797;28;20070;-73
2021/03/20 12:57:33;;;;;;;1.90;0.88;;;;;;;17.82;13.65;101254.44;10253778;28;20055;-71
2021/03/20 13:02:35;;;;;;;1.98;0.88;;;;;;;16.33;15.06;101244.78;10239122;28;20062;-76
2021/03/20 13:07:36;;;;;;;2.13;0.80;;;;;;;15.40;16.35;101234.00;10227121;28;20143;-72
2021/03/20 13:12:38;;;;;;;1.27;0.70;;;;;;;15.32;16.13;101220.41;10230665;28;20059;-72
2021/03/20 13:17:40;;;;;;;1.20;0.88;;;;;;;14.83;16.66;101234.28;10225462;28;20065;-72
2021/03/20 13:22:41;;;;;;;4.90;4.50;;;;;;;14.86;17.13;101217.06;10230784;28;20944;-72
2021/03/20 13:27:42;;;;;;;2.15;1.00;;;;;;;15.02;17.04;101213.97;10231018;28;20058;-71
2021/03/20 13:32:43;;;;;;;2.30;1.52;;;;;;;14.96;17.11;101207.28;10231154;28;20059;-72
2021/03/20 13:37:44;;;;;;;1.67;1.17;;;;;;;14.52;17.55;101214.47;10226893;28;20051;-71
2021/03/20 13:42:45;;;;;;;2.00;1.15;;;;;;;14.49;18.20;101204.84;10230503;28;20051;-70
2021/03/20 13:47:47;;;;;;;2.30;1.02;;;;;;;14.12;18.28;101191.78;10227226;28;20059;-71
2021/03/20 13:52:48;;;;;;;2.30;1.52;;;;;;;13.76;18.23;101201.78;10243945;28;20059;-71
2021/03/20 13:57:49;;;;;;;2.90;1.83;;;;;;;13.39;19.36;101209.13;10231150;28;20125;-72
2021/03/20 14:02:50;;;;;;;2.17;1.83;;;;;;;13.26;19.59;101193.19;10226756;28;20502;-70
2021/03/20 14:07:51;;;;;;;4.55;1.35;;;;;;;13.30;19.69;101188.44;10241686;28;20417;-71
2021/03/20 14:12:52;;;;;;;2.40;1.85;;;;;;;13.02;19.31;101186.06;10254868;28;20131;-71
2021/03/20 14:17:54;;;;;;;3.08;1.80;;;;;;;12.94;19.95;101183.13;10292179;28;20055;-73
2021/03/20 14:22:55;;;;;;;3.20;1.40;;;;;;;12.40;20.71;101188.94;10285966;28;20074;-71
2021/03/20 14:27:57;;;;;;;2.80;1.70;;;;;;;12.28;20.47;101183.53;10275443;28;20038;-73
2021/03/20 14:32:59;;;;;;;1.65;1.42;;;;;;;12.43;21.17;101173.56;10229937;28;20507;-71
2021/03/20 14:38:01;;;;;;;2.97;1.67;;;;;;;12.33;21.64;101170.69;10233343;28;20287;-72
2021/03/20 14:43:02;;;;;;;2.40;1.65;;;;;;;12.09;21.34;101164.50;10222204;28;20118;-71
2021/03/20 14:48:05;;;;;;;1.90;1.50;;;;;;;12.22;21.28;101157.31;10227478;28;20059;-70
2021/03/20 14:53:07;;;;;;;2.58;1.75;;;;;;;12.11;21.47;101162.56;10234636;28;20499;-72
2021/03/20 14:58:09;;;;;;;1.98;1.35;;;;;;;11.95;21.37;101154.78;10244031;28;20146;-72
2021/03/20 15:03:11;;;;;;;1.75;1.40;;;;;;;11.81;21.52;101151.28;10231003;28;20640;-71
2021/03/20 15:08:16;;;;;;;2.20;1.67;;;;;;;11.97;21.88;101151.06;10225829;28;20055;-71
2021/03/20 15:13:17;;;;;;;4.47;1.77;;;;;;;11.80;21.75;101138.03;10221438;28;20585;-71
2021/03/20 15:18:29;;;;;;;4.07;2.83;;;;;;;11.35;21.98;101133.19;10228799;28;20043;-70
2021/03/20 15:23:34;;;;;;;2.72;2.00;;;;;;;11.23;22.18;101129.56;10229906;28;20053;-70
2021/03/20 15:28:36;;;;;;;2.58;2.08;;;;;;;10.75;23.13;101114.19;10228558;28;20099;-71
2021/03/20 15:33:37;;;;;;;3.00;1.98;;;;;;;10.67;23.70;101110.31;10246419;28;20046;-70
2021/03/20 15:38:39;;;;;;;2.22;1.80;;;;;;;10.91;23.04;101110.47;10249470;28;20062;-71
2021/03/20 15:43:40;;;;;;;4.65;2.25;;;;;;;10.78;24.13;101102.47;10234471;28;20051;-72
2021/03/20 15:48:42;;;;;;;2.33;1.95;;;;;;;10.56;23.28;101101.25;10245148;28;20047;-72
2021/03/20 15:53:43;;;;;;;4.25;1.90;;;;;;;10.19;23.43;101102.78;10267247;28;20102;-71
2021/03/20 15:58:46;;;;;;;2.33;1.70;;;;;;;10.10;24.18;101101.56;10253446;28;20054;-70
2021/03/20 16:03:47;;;;;;;2.80;1.92;;;;;;;9.96;24.49;101114.94;10247930;28;20475;-72
2021/03/20 16:08:50;;;;;;;4.15;2.22;;;;;;;9.93;24.43;101109.81;10237419;28;20057;-71
2021/03/20 16:13:51;;;;;;;4.18;2.28;;;;;;;9.96;25.01;101112.28;10251444;28;20057;-71
2021/03/20 16:18:52;;;;;;;2.85;1.58;;;;;;;10.01;24.41;101107.50;10245014;28;20055;-71
2021/03/20 16:23:53;;;;;;;2.55;1.83;;;;;;;9.72;24.51;101104.91;10249219;28;20133;-71
2021/03/20 16:28:54;;;;;;;6.80;2.72;;;;;;;9.67;24.22;101104.34;10241662;28;20313;-71
2021/03/20 16:33:55;;;;;;;3.38;1.90;;;;;;;9.17;24.99;101099.44;10244432;28;20058;-71
2021/03/20 16:39:00;;;;;;;2.67;1.70;;;;;;;9.24;24.90;101091.06;10249493;28;20055;-70
2021/03/20 16:44:03;;;;;;;2.15;1.58;;;;;;;9.07;25.07;101089.44;10244531;28;20058;-70
2021/03/20 16:49:06;;;;;;;3.63;1.70;;;;;;;9.03;25.03;101088.78;10244760;28;20050;-71
2021/03/20 16:54:07;;;;;;;2.55;1.80;;;;;;;8.77;25.26;101093.84;10232819;28;20042;-71
2021/03/20 16:59:09;;;;;;;2.80;1.98;;;;;;;8.69;25.49;101088.13;10235636;28;20125;-71
2021/03/20 17:04:10;;;;;;;2.28;1.67;;;;;;;8.54;25.06;101070.47;10236752;28;20106;-70
2021/03/20 17:09:11;;;;;;;2.85;1.58;;;;;;;8.45;25.88;101075.38;10243804;28;20619;-72
2021/03/20 17:14:12;;;;;;;2.97;1.90;;;;;;;8.47;25.09;101067.34;10243050;28;20047;-71
2021/03/20 17:19:13;;;;;;;2.05;1.38;;;;;;;8.34;25.00;101064.50;10246683;28;20059;-71
2021/03/20 17:24:19;;;;;;;2.40;1.90;;;;;;;8.22;25.17;101052.81;10246904;28;20058;-71
2021/03/20 17:29:20;;;;;;;3.25;1.52;;;;;;;8.11;25.06;101053.44;10242437;28;20501;-72
2021/03/20 17:34:21;;;;;;;2.75;1.50;;;;;;;8.05;25.10;101059.09;10237163;28;20043;-71
2021/03/20 17:39:22;;;;;;;2.72;1.65;;;;;;;7.94;24.81;101050.88;10239586;28;20476;-71
2021/03/20 17:44:24;;;;;;;3.22;2.45;;;;;;;7.84;25.43;101039.94;10232214;28;20061;-71
2021/03/20 17:49:25;;;;;;;2.92;1.88;;;;;;;7.77;25.59;101052.69;10237659;28;20043;-71
2021/03/20 17:54:40;;;;;;;3.33;2.58;;;;;;;7.55;25.46;101054.81;10233373;28;20059;-70
2021/03/20 17:59:41;;;;;;;2.38;1.70;;;;;;;7.46;25.52;101042.06;10238427;28;20075;-69
2021/03/20 18:04:42;;;;;;;4.22;2.22;;;;;;;7.50;25.89;101054.22;10252764;28;20512;-70
2021/03/20 18:09:46;;;;;;;3.03;2.33;;;;;;;7.41;26.14;101047.63;10233642;28;20055;-71
2021/03/20 18:14:49;;;;;;;3.65;1.90;;;;;;;7.34;25.68;101063.00;10238834;28;20802;-71
2021/03/20 18:19:51;;;;;;;7.07;5.22;;;;;;;7.26;25.98;101070.50;10239455;28;20476;-71
2021/03/20 18:25:09;;;;;;;7.18;5.10;;;;;;;7.13;26.68;101064.16;10240966;28;20462;-71
2021/03/20 18:30:13;;;;;;;4.28;2.15;;;;;;;7.17;27.13;101049.81;10256374;28;20063;-71
2021/03/20 18:35:15;;;;;;;3.23;2.00;;;;;;;7.22;26.64;101053.94;10248708;28;20071;-70
2021/03/20 18:40:19;;;;;;;4.03;2.50;;;;;;;7.12;26.13;101062.44;10243304;28;20313;-71
2021/03/20 18:45:20;;;;;;;2.97;1.80;;;;;;;7.13;26.39;101064.16;10248497;28;20052;-70
2021/03/20 18:50:29;;;;;;;2.35;1.60;;;;;;;7.03;26.30;101067.28;10261803;28;20062;-71
2021/03/20 18:55:31;;;;;;;2.75;1.85;;;;;;;6.79;26.23;101065.94;10261866;28;20445;-71
2021/03/20 19:00:35;;;;;;;3.20;1.75;;;;;;;6.77;26.37;101062.50;10263360;28;20145;-70
2021/03/20 19:05:39;;;;;;;2.70;1.60;;;;;;;6.86;27.12;101052.28;10266608;28;20068;-71
2021/03/20 19:10:43;;;;;;;3.25;1.88;;;;;;;6.93;26.88;101044.88;10261980;28;20135;-70
2021/03/20 19:15:44;;;;;;;2.42;1.70;;;;;;;6.91;26.66;101041.47;10246713;28;20263;-70
2021/03/20 19:20:46;;;;;;;4.32;3.90;;;;;;;6.82;26.84;101045.44;10242381;28;20062;-71
2021/03/20 19:25:53;;;;;;;8.15;6.45;;;;;;;6.70;27.32;101036.34;10236490;28;20051;-71
2021/03/20 19:31:02;;;;;;;3.28;2.20;;;;;;;6.64;27.65;101041.13;10239204;28;20047;-70
2021/03/20 19:36:05;;;;;;;5.82;3.65;;;;;;;6.62;27.68;101035.91;10252367;28;20110;-71
2021/03/20 19:41:08;;;;;;;4.82;3.72;;;;;;;6.71;28.66;101035.41;10235280;28;20047;-70
2021/03/20 19:46:17;;;;;;;2.80;2.05;;;;;;;6.83;28.07;101030.41;10232856;28;20075;-70
2021/03/20 19:51:18;;;;;;;5.50;3.15;;;;;;;6.84;28.32;101030.31;10231522;28;20090;-70
2021/03/20 19:56:22;;;;;;;5.22;3.90;;;;;;;6.79;28.59;101037.66;10236061;28;20047;-71
2021/03/20 20:01:26;;;;;;;3.55;3.25;;;;;;;6.66;28.40;101029.50;10232827;28;20055;-71
2021/03/20 20:06:28;;;;;;;3.40;3.10;;;;;;;6.76;28.94;101036.97;10255985;28;20050;-71
2021/03/20 20:11:29;;;;;;;5.78;3.65;;;;;;;6.74;28.94;101031.78;10255695;28;20442;-71
2021/03/20 20:16:31;;;;;;;3.50;3.20;;;;;;;6.69;29.07;101026.69;10272788;28;20058;-70
2021/03/20 20:21:34;;;;;;;3.72;2.88;;;;;;;6.76;29.67;101021.09;10236518;28;20432;-71
2021/03/20 20:26:48;;;;;;;4.68;3.50;;;;;;;6.72;29.17;101013.34;10236795;28;20050;-70
2021/03/20 20:31:50;;;;;;;3.33;2.55;;;;;;;6.72;29.24;101018.63;10238840;28;20057;-70
2021/03/20 20:36:52;;;;;;;3.55;2.67;;;;;;;6.62;28.90;101022.69;10234768;28;20062;-72
2021/03/20 20:41:54;;;;;;;4.07;2.72;;;;;;;6.67;29.53;101028.56;10288097;23;20030;-72
2021/03/20 20:47:03;;;;;;;4.72;2.97;;;;;;;6.70;29.25;101031.06;10307872;28;20062;-71
2021/03/20 20:52:06;;;;;;;7.00;5.10;;;;;;;6.56;29.56;101023.00;10269240;28;20129;-73
2021/03/20 20:57:08;;;;;;;3.80;2.45;;;;;;;6.71;29.82;101029.25;10272029;28;20137;-70
2021/03/20 21:02:10;;;;;;;3.58;2.33;;;;;;;6.65;29.56;101022.50;10271309;28;20054;-70
2021/03/20 21:07:14;;;;;;;4.95;2.47;;;;;;;6.61;29.93;101015.66;10271281;28;20058;-72
2021/03/20 21:12:15;;;;;;;4.82;2.95;;;;;;;6.47;30.00;101013.75;10271041;28;20074;-70
2021/03/20 21:17:16;;;;;;;4.15;2.85;;;;;;;6.33;30.42;101008.28;10291090;28;20054;-71
2021/03/20 21:22:17;;;;;;;3.58;2.50;;;;;;;6.40;30.86;101014.13;10297612;28;20074;-68
2021/03/20 21:27:30;;;;;;;3.95;2.80;;;;;;;6.43;31.10;101006.03;10279680;28;20065;-71
2021/03/20 21:32:31;;;;;;;4.80;3.25;;;;;;;6.35;31.54;100990.53;10282143;28;20097;-70
2021/03/20 21:37:33;;;;;;;4.70;3.30;;;;;;;6.35;31.61;100985.25;10296087;28;20042;-71
2021/03/20 21:42:34;;;;;;;12.68;9.07;;;;;;;6.41;32.05;100992.03;10289279;28;20051;-70
2021/03/20 21:47:36;;;;;;;2.80;2.60;;;;;;;6.35;32.40;100972.91;10275351;28;20373;-70
2021/03/20 21:52:41;;;;;;;3.67;3.20;;;;;;;6.43;32.56;100969.00;10266604;28;20067;-70
2021/03/20 21:57:52;;;;;;;4.32;2.60;;;;;;;6.37;32.71;100962.25;10268512;28;20046;-71
2021/03/20 22:02:53;;;;;;;4.28;2.85;;;;;;;6.37;33.10;100971.03;10267590;28;20082;-70
2021/03/20 22:07:55;;;;;;;5.45;2.80;;;;;;;6.45;33.34;100967.97;10267077;28;20063;-70
2021/03/20 22:12:56;;;;;;;5.13;2.92;;;;;;;6.42;33.48;100972.59;10270956;28;20051;-71
2021/03/20 22:17:57;;;;;;;4.45;3.78;;;;;;;6.48;33.96;100967.81;10263121;28;20141;-69
2021/03/20 22:23:02;;;;;;;4.38;3.22;;;;;;;6.47;33.88;100962.59;10263114;28;20053;-70
2021/03/20 22:28:15;;;;;;;5.47;3.45;;;;;;;6.52;34.42;100963.25;10261099;28;20507;-71
2021/03/20 22:33:17;;;;;;;5.75;3.40;;;;;;;6.57;34.35;100961.19;10263563;28;20050;-70
2021/03/20 22:38:18;;;;;;;4.93;4.00;;;;;;;6.62;34.66;100950.38;10262390;28;20074;-72
2021/03/20 22:43:19;;;;;;;4.70;3.42;;;;;;;6.60;34.73;100949.59;10275627;28;20109;-71
2021/03/20 22:48:20;;;;;;;4.07;3.25;;;;;;;6.64;35.31;100941.44;10272762;28;20065;-70
2021/03/20 22:53:22;;;;;;;5.25;3.80;;;;;;;6.67;35.26;100935.97;10255653;28;20641;-70
2021/03/20 22:58:38;;;;;;;6.53;3.83;;;;;;;6.66;35.60;100939.53;10271860;28;20050;-70
2021/03/20 23:03:45;;;;;;;5.47;4.20;;;;;;;6.76;35.58;100939.91;10260188;28;20504;-71
2021/03/20 23:08:50;;;;;;;4.15;3.70;;;;;;;6.75;35.58;100938.19;10261250;28;20533;-71
2021/03/20 23:13:51;;;;;;;6.03;4.43;;;;;;;6.71;36.01;100932.22;10260007;28;20051;-72
2021/03/20 23:18:53;;;;;;;4.60;4.00;;;;;;;6.82;36.27;100933.44;10284709;28;20509;-73
2021/03/20 23:23:55;;;;;;;4.38;3.60;;;;;;;6.88;36.22;100933.13;10297692;28;20105;-75
2021/03/20 23:29:02;;;;;;;5.35;3.42;;;;;;;6.89;36.13;100918.94;10271639;28;20065;-72
2021/03/20 23:34:03;;;;;;;3.95;3.55;;;;;;;6.92;36.72;100929.38;10284564;28;20058;-73
2021/03/20 23:44:21;;;;;;;4.53;3.95;;;;;;;6.94;36.62;100916.06;10215974;26;20094;-71
2021/03/20 23:49:22;;;;;;;5.72;4.13;;;;;;;6.94;37.21;100914.25;10233047;28;20106;-71